sensor_id;sensor_type;location;lat;lon;timestamp;pressure;altitude;pressure_sealevel;temperature;humidity
73105;BME280;61296;50.526;30.792;2023-02-28T00:09:00;100641.75;;;-3.66;71.99
73105;BME280;61296;50.526;30.792;2023-02-28T00:24:20;100659.19;;;-3.68;72.18
73105;BME280;61296;50.526;30.792;2023-02-28T00:39:40;100585.16;;;-4.08;71.98
73105;BME280;61296;50.526;30.792;2023-02-28T00:54:59;100661.03;;;-3.74;72.21
73105;BME280;61296;50.526;30.792;2023-02-28T01:10:20;100636.06;;;-3.96;72.91
73105;BME280;61296;50.526;30.792;2023-02-28T01:25:40;100626.50;;;-4.09;73.48
73105;BME280;61296;50.526;30.792;2023-02-28T01:40:59;100577.81;;;-4.61;73.86
73105;BME280;61296;50.526;30.792;2023-02-28T01:56:24;100574.31;;;-4.84;74.15
73105;BME280;61296;50.526;30.792;2023-02-28T02:11:47;100584.50;;;-4.86;74.31
73105;BME280;61296;50.526;30.792;2023-02-28T02:43:15;100564.06;;;-5.09;73.49
73105;BME280;61296;50.526;30.792;2023-02-28T02:58:38;100548.41;;;-5.34;74.00
73105;BME280;61296;50.526;30.792;2023-02-28T03:29:40;100657.97;;;-4.70;73.65
73105;BME280;61296;50.526;30.792;2023-02-28T03:45:05;100729.25;;;-4.02;73.24
73105;BME280;61296;50.526;30.792;2023-02-28T04:00:55;100719.94;;;-3.94;73.29
73105;BME280;61296;50.526;30.792;2023-02-28T04:16:17;100705.09;;;-3.97;73.02
73105;BME280;61296;50.526;30.792;2023-02-28T04:31:36;100701.84;;;-3.77;73.32
73105;BME280;61296;50.526;30.792;2023-02-28T04:46:55;100596.25;;;-4.48;73.51
73105;BME280;61296;50.526;30.792;2023-02-28T05:02:15;100669.22;;;-3.86;73.10
73105;BME280;61296;50.526;30.792;2023-02-28T05:17:34;100722.94;;;-3.42;73.01
73105;BME280;61296;50.526;30.792;2023-02-28T05:32:54;100676.53;;;-3.81;74.20
73105;BME280;61296;50.526;30.792;2023-02-28T05:48:13;100726.41;;;-3.68;75.63
73105;BME280;61296;50.526;30.792;2023-02-28T06:03:33;100707.91;;;-3.87;76.21
73105;BME280;61296;50.526;30.792;2023-02-28T06:18:52;100765.16;;;-3.42;76.50
73105;BME280;61296;50.526;30.792;2023-02-28T06:34:13;100686.06;;;-3.95;76.11
73105;BME280;61296;50.526;30.792;2023-02-28T06:49:33;100698.34;;;-4.43;75.19
73105;BME280;61296;50.526;30.792;2023-02-28T07:05:00;100611.50;;;-4.54;74.96
73105;BME280;61296;50.526;30.792;2023-02-28T07:20:19;100647.84;;;-4.24;74.26
73105;BME280;61296;50.526;30.792;2023-02-28T07:35:39;100755.84;;;-3.57;74.69
73105;BME280;61296;50.526;30.792;2023-02-28T07:50:59;100730.88;;;-3.79;75.92
73105;BME280;61296;50.526;30.792;2023-02-28T08:06:21;100654.44;;;-4.10;75.83
73105;BME280;61296;50.526;30.792;2023-02-28T08:21:46;100753.81;;;-3.44;75.63
73105;BME280;61296;50.526;30.792;2023-02-28T08:37:06;100614.09;;;-4.15;73.80
73105;BME280;61296;50.526;30.792;2023-02-28T08:52:25;100637.59;;;-3.52;71.53
73105;BME280;61296;50.526;30.792;2023-02-28T09:07:44;100674.16;;;-2.92;70.33
73105;BME280;61296;50.526;30.792;2023-02-28T09:23:07;100681.50;;;-2.77;69.84
73105;BME280;61296;50.526;30.792;2023-02-28T09:38:29;100732.63;;;-2.45;71.03
73105;BME280;61296;50.526;30.792;2023-02-28T09:53:48;100573.56;;;-3.55;71.67
73105;BME280;61296;50.526;30.792;2023-02-28T10:09:15;100654.16;;;-3.01;72.36
73105;BME280;61296;50.526;30.792;2023-02-28T10:24:44;100590.78;;;-3.18;72.40
73105;BME280;61296;50.526;30.792;2023-02-28T10:40:05;100594.22;;;-2.91;69.33
73105;BME280;61296;50.526;30.792;2023-02-28T10:55:25;100501.91;;;-2.81;66.75
73105;BME280;61296;50.526;30.792;2023-02-28T11:27:26;100653.72;;;-1.62;68.26
73105;BME280;61296;50.526;30.792;2023-02-28T11:58:36;100540.06;;;-2.32;68.06
73105;BME280;61296;50.526;30.792;2023-02-28T12:45:52;100525.22;;;-2.40;68.93
73105;BME280;61296;50.526;30.792;2023-02-28T13:17:01;100443.34;;;-2.28;66.11
73105;BME280;61296;50.526;30.792;2023-02-28T13:47:59;100405.59;;;-1.88;64.72
73105;BME280;61296;50.526;30.792;2023-02-28T14:34:53;100463.63;;;-0.95;64.82
73105;BME280;61296;50.526;30.792;2023-02-28T14:50:23;100291.34;;;-2.07;65.35
73105;BME280;61296;50.526;30.792;2023-02-28T15:05:51;100336.34;;;-1.87;65.66
73105;BME280;61296;50.526;30.792;2023-02-28T15:21:13;100315.00;;;-1.84;66.02
73105;BME280;61296;50.526;30.792;2023-02-28T15:36:34;100388.53;;;-1.48;65.84
73105;BME280;61296;50.526;30.792;2023-02-28T15:51:59;100442.19;;;-1.41;66.01
73105;BME280;61296;50.526;30.792;2023-02-28T16:07:19;100315.63;;;-2.53;66.46
73105;BME280;61296;50.526;30.792;2023-02-28T16:22:39;100358.72;;;-2.53;67.43
73105;BME280;61296;50.526;30.792;2023-02-28T16:38:01;100412.06;;;-2.29;68.27
73105;BME280;61296;50.526;30.792;2023-02-28T16:53:21;100352.50;;;-2.89;69.15
73105;BME280;61296;50.526;30.792;2023-02-28T17:08:40;100323.91;;;-3.05;69.82
73105;BME280;61296;50.526;30.792;2023-02-28T17:24:00;100365.94;;;-2.94;70.57
73105;BME280;61296;50.526;30.792;2023-02-28T17:39:52;100427.63;;;-2.72;71.73
73105;BME280;61296;50.526;30.792;2023-02-28T17:55:15;100361.50;;;-3.36;72.68
73105;BME280;61296;50.526;30.792;2023-02-28T18:10:35;100448.84;;;-2.91;73.04
73105;BME280;61296;50.526;30.792;2023-02-28T18:25:54;100363.75;;;-3.70;74.31
73105;BME280;61296;50.526;30.792;2023-02-28T18:41:21;100408.78;;;-3.45;75.50
73105;BME280;61296;50.526;30.792;2023-02-28T18:56:43;100305.19;;;-4.15;76.52
73105;BME280;61296;50.526;30.792;2023-02-28T19:12:04;100296.28;;;-4.21;76.75
73105;BME280;61296;50.526;30.792;2023-02-28T19:27:23;100328.56;;;-4.16;77.82
73105;BME280;61296;50.526;30.792;2023-02-28T19:42:42;100282.19;;;-4.43;77.99
73105;BME280;61296;50.526;30.792;2023-02-28T19:58:03;100368.50;;;-3.87;78.21
73105;BME280;61296;50.526;30.792;2023-02-28T20:13:23;100345.28;;;-4.03;78.79
73105;BME280;61296;50.526;30.792;2023-02-28T20:28:44;100307.50;;;-4.29;78.70
73105;BME280;61296;50.526;30.792;2023-02-28T20:44:04;100263.84;;;-4.51;78.62
73105;BME280;61296;50.526;30.792;2023-02-28T20:59:23;100246.41;;;-4.54;78.69
73105;BME280;61296;50.526;30.792;2023-02-28T21:14:46;100294.00;;;-3.97;78.66
73105;BME280;61296;50.526;30.792;2023-02-28T21:30:07;100248.00;;;-4.11;78.10
73105;BME280;61296;50.526;30.792;2023-02-28T21:45:27;100206.03;;;-4.27;77.85
73105;BME280;61296;50.526;30.792;2023-02-28T22:00:47;100170.22;;;-4.43;78.09
73105;BME280;61296;50.526;30.792;2023-02-28T22:16:09;100127.22;;;-4.53;77.49
73105;BME280;61296;50.526;30.792;2023-02-28T22:31:33;100143.69;;;-4.34;77.45
73105;BME280;61296;50.526;30.792;2023-02-28T22:46:53;100145.28;;;-4.33;77.68
73105;BME280;61296;50.526;30.792;2023-02-28T23:02:13;100204.31;;;-3.81;77.68
73105;BME280;61296;50.526;30.792;2023-02-28T23:17:32;100118.97;;;-4.31;77.99
73105;BME280;61296;50.526;30.792;2023-02-28T23:32:52;100071.16;;;-4.44;77.86
73105;BME280;61296;50.526;30.792;2023-02-28T23:48:12;100108.31;;;-4.11;78.39
